sensor_id;sensor_type;location;lat;lon;timestamp;temperature;humidity
53782;DHT22;39692;53.114;7.060;2022-09-09T01:45:17;14.80;99.90
53782;DHT22;39692;53.114;7.060;2022-09-09T01:47:44;14.70;99.90
53782;DHT22;39692;53.114;7.060;2022-09-09T01:50:13;14.70;99.90
53782;DHT22;39692;53.114;7.060;2022-09-09T01:52:40;14.70;99.90
53782;DHT22;39692;53.114;7.060;2022-09-09T01:55:08;14.70;99.90
53782;DHT22;39692;53.114;7.060;2022-09-09T01:57:42;14.70;99.90
53782;DHT22;39692;53.114;7.060;2022-09-09T02:00:13;14.50;99.90
53782;DHT22;39692;53.114;7.060;2022-09-09T02:03:00;14.50;99.90
53782;DHT22;39692;53.114;7.060;2022-09-09T02:08:09;14.80;99.90
53782;DHT22;39692;53.114;7.060;2022-09-09T02:10:55;14.60;99.90
53782;DHT22;39692;53.114;7.060;2022-09-09T02:13:22;14.60;99.90
53782;DHT22;39692;53.114;7.060;2022-09-09T02:16:07;14.50;99.90
53782;DHT22;39692;53.114;7.060;2022-09-09T02:18:50;14.60;99.90
53782;DHT22;39692;53.114;7.060;2022-09-09T02:21:17;14.50;99.90
53782;DHT22;39692;53.114;7.060;2022-09-09T02:23:44;14.50;99.90
53782;DHT22;39692;53.114;7.060;2022-09-09T02:26:13;14.40;99.90
53782;DHT22;39692;53.114;7.060;2022-09-09T02:28:46;14.60;99.90
53782;DHT22;39692;53.114;7.060;2022-09-09T02:31:13;14.60;99.90
53782;DHT22;39692;53.114;7.060;2022-09-09T02:33:44;14.60;99.90
53782;DHT22;39692;53.114;7.060;2022-09-09T02:36:11;14.60;99.90
53782;DHT22;39692;53.114;7.060;2022-09-09T02:38:45;14.70;99.90
53782;DHT22;39692;53.114;7.060;2022-09-09T02:41:11;14.80;99.90
53782;DHT22;39692;53.114;7.060;2022-09-09T02:43:37;14.60;99.90
53782;DHT22;39692;53.114;7.060;2022-09-09T02:46:13;14.60;99.90
53782;DHT22;39692;53.114;7.060;2022-09-09T02:48:59;14.70;99.90
53782;DHT22;39692;53.114;7.060;2022-09-09T02:51:44;14.60;99.90
53782;DHT22;39692;53.114;7.060;2022-09-09T02:54:36;14.50;99.90
53782;DHT22;39692;53.114;7.060;2022-09-09T02:57:14;14.60;99.90
53782;DHT22;39692;53.114;7.060;2022-09-09T02:59:43;14.60;99.90
53782;DHT22;39692;53.114;7.060;2022-09-09T03:02:09;14.70;99.90
53782;DHT22;39692;53.114;7.060;2022-09-09T03:04:36;14.70;99.90
53782;DHT22;39692;53.114;7.060;2022-09-09T03:07:02;14.90;99.90
53782;DHT22;39692;53.114;7.060;2022-09-09T03:09:29;14.80;99.90
53782;DHT22;39692;53.114;7.060;2022-09-09T03:11:55;14.80;99.90
53782;DHT22;39692;53.114;7.060;2022-09-09T03:14:22;14.80;99.90
53782;DHT22;39692;53.114;7.060;2022-09-09T03:16:53;14.90;99.90
53782;DHT22;39692;53.114;7.060;2022-09-09T03:19:20;14.90;99.90
53782;DHT22;39692;53.114;7.060;2022-09-09T03:21:47;14.80;99.90
53782;DHT22;39692;53.114;7.060;2022-09-09T03:24:13;14.70;99.90
53782;DHT22;39692;53.114;7.060;2022-09-09T03:26:40;14.80;99.90
53782;DHT22;39692;53.114;7.060;2022-09-09T03:29:07;14.80;99.90
53782;DHT22;39692;53.114;7.060;2022-09-09T03:31:33;14.70;99.90
53782;DHT22;39692;53.114;7.060;2022-09-09T03:33:59;14.90;99.90
53782;DHT22;39692;53.114;7.060;2022-09-09T03:36:26;14.80;99.90
53782;DHT22;39692;53.114;7.060;2022-09-09T03:38:52;14.80;99.90
53782;DHT22;39692;53.114;7.060;2022-09-09T03:41:23;14.80;99.90
53782;DHT22;39692;53.114;7.060;2022-09-09T03:43:53;14.90;99.90
53782;DHT22;39692;53.114;7.060;2022-09-09T03:46:20;14.90;99.90
53782;DHT22;39692;53.114;7.060;2022-09-09T03:48:46;14.90;99.90
53782;DHT22;39692;53.114;7.060;2022-09-09T03:51:12;14.90;99.90
53782;DHT22;39692;53.114;7.060;2022-09-09T03:53:38;15.00;99.90
53782;DHT22;39692;53.114;7.060;2022-09-09T03:56:05;15.00;99.90
53782;DHT22;39692;53.114;7.060;2022-09-09T03:58:33;14.90;99.90
53782;DHT22;39692;53.114;7.060;2022-09-09T04:01:02;14.90;99.90
53782;DHT22;39692;53.114;7.060;2022-09-09T04:03:28;15.00;99.90
53782;DHT22;39692;53.114;7.060;2022-09-09T04:05:55;15.00;99.90
53782;DHT22;39692;53.114;7.060;2022-09-09T04:08:22;14.90;99.90
53782;DHT22;39692;53.114;7.060;2022-09-09T04:10:49;15.00;99.90
53782;DHT22;39692;53.114;7.060;2022-09-09T04:13:17;15.10;99.90
53782;DHT22;39692;53.114;7.060;2022-09-09T04:15:44;14.90;99.90
53782;DHT22;39692;53.114;7.060;2022-09-09T04:18:15;14.90;99.90
53782;DHT22;39692;53.114;7.060;2022-09-09T04:20:40;14.90;99.90
53782;DHT22;39692;53.114;7.060;2022-09-09T04:23:08;15.00;99.90
53782;DHT22;39692;53.114;7.060;2022-09-09T04:25:34;14.90;99.90
53782;DHT22;39692;53.114;7.060;2022-09-09T04:28:00;15.00;99.90
53782;DHT22;39692;53.114;7.060;2022-09-09T04:30:26;14.90;99.90
53782;DHT22;39692;53.114;7.060;2022-09-09T04:32:53;14.90;99.90
53782;DHT22;39692;53.114;7.060;2022-09-09T04:35:19;14.90;99.90
53782;DHT22;39692;53.114;7.060;2022-09-09T04:37:45;14.90;99.90
53782;DHT22;39692;53.114;7.060;2022-09-09T04:40:11;14.90;99.90
53782;DHT22;39692;53.114;7.060;2022-09-09T04:42:38;14.90;99.90
53782;DHT22;39692;53.114;7.060;2022-09-09T04:45:05;15.10;99.90
53782;DHT22;39692;53.114;7.060;2022-09-09T04:47:32;14.90;99.90
53782;DHT22;39692;53.114;7.060;2022-09-09T04:49:58;14.90;99.90
53782;DHT22;39692;53.114;7.060;2022-09-09T04:52:23;15.00;99.90
53782;DHT22;39692;53.114;7.060;2022-09-09T04:54:49;14.90;99.90
53782;DHT22;39692;53.114;7.060;2022-09-09T04:57:15;15.00;99.90
53782;DHT22;39692;53.114;7.060;2022-09-09T04:59:40;14.90;99.90
53782;DHT22;39692;53.114;7.060;2022-09-09T05:02:06;15.00;99.90
53782;DHT22;39692;53.114;7.060;2022-09-09T05:04:32;14.80;99.90
53782;DHT22;39692;53.114;7.060;2022-09-09T05:06:58;14.80;99.90
53782;DHT22;39692;53.114;7.060;2022-09-09T05:09:24;15.00;99.90
53782;DHT22;39692;53.114;7.060;2022-09-09T05:11:50;14.90;99.90
53782;DHT22;39692;53.114;7.060;2022-09-09T05:14:17;15.10;99.90
53782;DHT22;39692;53.114;7.060;2022-09-09T05:16:44;14.90;99.90
53782;DHT22;39692;53.114;7.060;2022-09-09T05:19:10;14.90;99.90
53782;DHT22;39692;53.114;7.060;2022-09-09T05:21:36;15.00;99.90
53782;DHT22;39692;53.114;7.060;2022-09-09T05:24:02;14.70;99.90
53782;DHT22;39692;53.114;7.060;2022-09-09T05:26:28;14.80;99.90
53782;DHT22;39692;53.114;7.060;2022-09-09T05:28:54;14.80;99.90
53782;DHT22;39692;53.114;7.060;2022-09-09T05:31:21;14.80;99.90
53782;DHT22;39692;53.114;7.060;2022-09-09T05:33:47;14.90;99.90
53782;DHT22;39692;53.114;7.060;2022-09-09T05:36:19;14.90;99.90
53782;DHT22;39692;53.114;7.060;2022-09-09T05:38:45;14.90;99.90
53782;DHT22;39692;53.114;7.060;2022-09-09T05:41:12;14.90;99.90
53782;DHT22;39692;53.114;7.060;2022-09-09T05:43:41;14.90;99.90
53782;DHT22;39692;53.114;7.060;2022-09-09T05:46:17;15.00;99.90
53782;DHT22;39692;53.114;7.060;2022-09-09T05:48:45;14.90;99.90
53782;DHT22;39692;53.114;7.060;2022-09-09T05:51:17;14.80;99.90
53782;DHT22;39692;53.114;7.060;2022-09-09T05:53:45;14.80;99.90
53782;DHT22;39692;53.114;7.060;2022-09-09T05:56:13;14.90;99.90
53782;DHT22;39692;53.114;7.060;2022-09-09T05:58:43;14.90;99.90
53782;DHT22;39692;53.114;7.060;2022-09-09T06:01:26;14.90;99.90
53782;DHT22;39692;53.114;7.060;2022-09-09T06:03:53;14.90;99.90
53782;DHT22;39692;53.114;7.060;2022-09-09T06:06:40;14.90;99.90
53782;DHT22;39692;53.114;7.060;2022-09-09T06:09:08;15.00;99.90
53782;DHT22;39692;53.114;7.060;2022-09-09T06:11:37;15.00;99.90
53782;DHT22;39692;53.114;7.060;2022-09-09T06:14:04;14.90;99.90
53782;DHT22;39692;53.114;7.060;2022-09-09T06:16:33;15.00;99.90
53782;DHT22;39692;53.114;7.060;2022-09-09T06:18:59;15.00;99.90
53782;DHT22;39692;53.114;7.060;2022-09-09T06:23:51;15.10;99.90
53782;DHT22;39692;53.114;7.060;2022-09-09T06:26:23;15.20;99.90
53782;DHT22;39692;53.114;7.060;2022-09-09T06:28:52;15.20;99.90
53782;DHT22;39692;53.114;7.060;2022-09-09T06:31:20;15.20;99.90
53782;DHT22;39692;53.114;7.060;2022-09-09T06:33:48;15.40;99.90
53782;DHT22;39692;53.114;7.060;2022-09-09T06:36:22;15.40;99.90
53782;DHT22;39692;53.114;7.060;2022-09-09T06:38:48;15.50;99.90
53782;DHT22;39692;53.114;7.060;2022-09-09T06:41:16;15.50;99.90
53782;DHT22;39692;53.114;7.060;2022-09-09T06:43:42;15.60;99.90
53782;DHT22;39692;53.114;7.060;2022-09-09T06:46:19;15.70;99.90
53782;DHT22;39692;53.114;7.060;2022-09-09T06:48:45;15.80;99.90
53782;DHT22;39692;53.114;7.060;2022-09-09T06:51:14;15.80;99.90
53782;DHT22;39692;53.114;7.060;2022-09-09T06:53:42;16.00;99.90
53782;DHT22;39692;53.114;7.060;2022-09-09T07:05:59;18.60;99.90
53782;DHT22;39692;53.114;7.060;2022-09-09T07:10:52;18.70;99.90
53782;DHT22;39692;53.114;7.060;2022-09-09T07:13:25;18.50;99.90
53782;DHT22;39692;53.114;7.060;2022-09-09T07:15:52;18.60;99.90
53782;DHT22;39692;53.114;7.060;2022-09-09T07:18:18;18.90;99.90
53782;DHT22;39692;53.114;7.060;2022-09-09T07:20:53;19.40;99.90
53782;DHT22;39692;53.114;7.060;2022-09-09T07:23:20;19.40;99.90
53782;DHT22;39692;53.114;7.060;2022-09-09T07:25:46;19.20;99.90
53782;DHT22;39692;53.114;7.060;2022-09-09T07:28:13;19.30;99.90
53782;DHT22;39692;53.114;7.060;2022-09-09T08:19:31;25.30;99.90
53782;DHT22;39692;53.114;7.060;2022-09-09T08:22:01;25.60;99.90
53782;DHT22;39692;53.114;7.060;2022-09-09T08:24:28;27.40;99.90
53782;DHT22;39692;53.114;7.060;2022-09-09T08:26:53;28.40;92.30
53782;DHT22;39692;53.114;7.060;2022-09-09T08:29:19;28.90;85.60
53782;DHT22;39692;53.114;7.060;2022-09-09T08:31:50;28.50;83.40
53782;DHT22;39692;53.114;7.060;2022-09-09T08:34:17;27.60;82.30
53782;DHT22;39692;53.114;7.060;2022-09-09T08:36:46;26.70;86.50
53782;DHT22;39692;53.114;7.060;2022-09-09T08:39:14;25.90;92.70
53782;DHT22;39692;53.114;7.060;2022-09-09T08:49:24;24.10;99.90
53782;DHT22;39692;53.114;7.060;2022-09-09T08:51:55;24.30;99.90
53782;DHT22;39692;53.114;7.060;2022-09-09T08:54:21;24.20;99.90
53782;DHT22;39692;53.114;7.060;2022-09-09T08:56:48;23.70;99.90
53782;DHT22;39692;53.114;7.060;2022-09-09T08:59:16;22.90;99.90
53782;DHT22;39692;53.114;7.060;2022-09-09T09:02:03;22.20;99.90
53782;DHT22;39692;53.114;7.060;2022-09-09T09:04:49;21.80;99.90
53782;DHT22;39692;53.114;7.060;2022-09-09T09:07:33;21.90;99.90
53782;DHT22;39692;53.114;7.060;2022-09-09T09:12:56;22.80;99.90
53782;DHT22;39692;53.114;7.060;2022-09-09T09:15:30;22.80;99.90
53782;DHT22;39692;53.114;7.060;2022-09-09T09:17:56;22.90;99.90
53782;DHT22;39692;53.114;7.060;2022-09-09T09:23:16;23.90;99.90
53782;DHT22;39692;53.114;7.060;2022-09-09T09:25:45;24.70;99.90
53782;DHT22;39692;53.114;7.060;2022-09-09T09:28:17;25.00;99.90
53782;DHT22;39692;53.114;7.060;2022-09-09T09:31:03;24.60;99.90
53782;DHT22;39692;53.114;7.060;2022-09-09T09:36:07;23.10;99.90
53782;DHT22;39692;53.114;7.060;2022-09-09T09:38:35;22.30;99.90
53782;DHT22;39692;53.114;7.060;2022-09-09T09:41:01;21.70;99.90
53782;DHT22;39692;53.114;7.060;2022-09-09T09:43:32;21.40;99.90
53782;DHT22;39692;53.114;7.060;2022-09-09T09:45:58;21.60;99.90
53782;DHT22;39692;53.114;7.060;2022-09-09T09:48:26;21.80;99.90
53782;DHT22;39692;53.114;7.060;2022-09-09T09:50:54;21.80;99.90
53782;DHT22;39692;53.114;7.060;2022-09-09T09:53:29;21.70;99.90
53782;DHT22;39692;53.114;7.060;2022-09-09T09:56:00;22.00;99.90
53782;DHT22;39692;53.114;7.060;2022-09-09T09:58:50;22.80;99.90
53782;DHT22;39692;53.114;7.060;2022-09-09T10:01:28;22.80;99.90
53782;DHT22;39692;53.114;7.060;2022-09-09T10:03:58;22.10;99.90
53782;DHT22;39692;53.114;7.060;2022-09-09T10:06:35;21.60;99.90
53782;DHT22;39692;53.114;7.060;2022-09-09T10:09:17;21.10;99.90
53782;DHT22;39692;53.114;7.060;2022-09-09T10:14:24;22.00;99.90
53782;DHT22;39692;53.114;7.060;2022-09-09T10:19:34;25.20;99.90
53782;DHT22;39692;53.114;7.060;2022-09-09T10:28:01;26.20;89.30
53782;DHT22;39692;53.114;7.060;2022-09-09T10:31:00;26.50;85.40
53782;DHT22;39692;53.114;7.060;2022-09-09T10:36:21;26.70;77.60
53782;DHT22;39692;53.114;7.060;2022-09-09T10:39:03;26.10;80.00
53782;DHT22;39692;53.114;7.060;2022-09-09T10:41:51;26.50;79.30
53782;DHT22;39692;53.114;7.060;2022-09-09T10:55:19;27.80;71.70
53782;DHT22;39692;53.114;7.060;2022-09-09T10:57:53;28.10;68.90
53782;DHT22;39692;53.114;7.060;2022-09-09T11:00:21;28.50;68.40
53782;DHT22;39692;53.114;7.060;2022-09-09T11:02:53;27.80;66.50
53782;DHT22;39692;53.114;7.060;2022-09-09T11:05:27;26.60;67.90
53782;DHT22;39692;53.114;7.060;2022-09-09T11:08:01;25.60;71.10
53782;DHT22;39692;53.114;7.060;2022-09-09T11:10:41;25.80;73.50
53782;DHT22;39692;53.114;7.060;2022-09-09T11:13:19;25.50;72.30
53782;DHT22;39692;53.114;7.060;2022-09-09T11:15:58;25.70;72.50
53782;DHT22;39692;53.114;7.060;2022-09-09T11:18:28;25.60;73.40
53782;DHT22;39692;53.114;7.060;2022-09-09T11:20:59;26.10;72.80
53782;DHT22;39692;53.114;7.060;2022-09-09T11:23:47;26.60;70.20
53782;DHT22;39692;53.114;7.060;2022-09-09T11:26:33;27.30;68.00
53782;DHT22;39692;53.114;7.060;2022-09-09T11:40:27;30.10;59.60
53782;DHT22;39692;53.114;7.060;2022-09-09T11:43:10;30.30;56.90
53782;DHT22;39692;53.114;7.060;2022-09-09T11:45:39;30.60;57.90
53782;DHT22;39692;53.114;7.060;2022-09-09T11:48:05;31.30;57.00
53782;DHT22;39692;53.114;7.060;2022-09-09T11:51:07;30.40;57.30
53782;DHT22;39692;53.114;7.060;2022-09-09T11:53:47;28.70;58.10
53782;DHT22;39692;53.114;7.060;2022-09-09T11:56:27;27.00;61.80
53782;DHT22;39692;53.114;7.060;2022-09-09T11:59:03;25.50;65.90
53782;DHT22;39692;53.114;7.060;2022-09-09T12:04:26;23.60;80.70
53782;DHT22;39692;53.114;7.060;2022-09-09T12:12:35;24.80;84.40
53782;DHT22;39692;53.114;7.060;2022-09-09T12:17:42;28.30;67.40
53782;DHT22;39692;53.114;7.060;2022-09-09T12:25:35;29.50;57.70
53782;DHT22;39692;53.114;7.060;2022-09-09T12:28:17;28.40;57.50
53782;DHT22;39692;53.114;7.060;2022-09-09T12:30:49;28.50;60.10
53782;DHT22;39692;53.114;7.060;2022-09-09T12:33:18;28.90;57.30
53782;DHT22;39692;53.114;7.060;2022-09-09T12:35:49;28.10;57.10
53782;DHT22;39692;53.114;7.060;2022-09-09T12:38:43;27.30;58.30
53782;DHT22;39692;53.114;7.060;2022-09-09T12:41:23;26.30;60.20
53782;DHT22;39692;53.114;7.060;2022-09-09T12:43:50;25.30;63.80
53782;DHT22;39692;53.114;7.060;2022-09-09T12:48:54;23.80;71.20
53782;DHT22;39692;53.114;7.060;2022-09-09T12:51:30;23.20;77.30
53782;DHT22;39692;53.114;7.060;2022-09-09T12:53:57;23.00;82.50
53782;DHT22;39692;53.114;7.060;2022-09-09T12:56:26;22.80;83.80
53782;DHT22;39692;53.114;7.060;2022-09-09T12:58:54;22.80;83.00
53782;DHT22;39692;53.114;7.060;2022-09-09T13:01:31;23.10;83.60
53782;DHT22;39692;53.114;7.060;2022-09-09T13:03:57;23.50;85.10
53782;DHT22;39692;53.114;7.060;2022-09-09T13:06:28;23.70;81.30
53782;DHT22;39692;53.114;7.060;2022-09-09T13:08:56;24.10;80.30
53782;DHT22;39692;53.114;7.060;2022-09-09T13:13:55;24.90;72.40
53782;DHT22;39692;53.114;7.060;2022-09-09T13:16:29;25.10;69.20
53782;DHT22;39692;53.114;7.060;2022-09-09T13:19:15;25.20;67.80
53782;DHT22;39692;53.114;7.060;2022-09-09T13:21:42;25.00;67.30
53782;DHT22;39692;53.114;7.060;2022-09-09T13:24:40;24.50;68.50
53782;DHT22;39692;53.114;7.060;2022-09-09T13:27:28;23.90;70.20
53782;DHT22;39692;53.114;7.060;2022-09-09T13:29:55;23.80;73.10
53782;DHT22;39692;53.114;7.060;2022-09-09T13:32:22;23.70;72.40
53782;DHT22;39692;53.114;7.060;2022-09-09T13:37:26;23.40;72.90
53782;DHT22;39692;53.114;7.060;2022-09-09T13:39:55;23.30;75.00
53782;DHT22;39692;53.114;7.060;2022-09-09T13:42:29;23.20;77.30
53782;DHT22;39692;53.114;7.060;2022-09-09T13:44:55;23.20;84.00
53782;DHT22;39692;53.114;7.060;2022-09-09T13:47:31;23.00;82.80
53782;DHT22;39692;53.114;7.060;2022-09-09T13:49:57;22.80;86.90
53782;DHT22;39692;53.114;7.060;2022-09-09T13:52:23;22.40;85.70
53782;DHT22;39692;53.114;7.060;2022-09-09T13:54:50;21.90;88.20
53782;DHT22;39692;53.114;7.060;2022-09-09T13:57:21;21.60;91.60
53782;DHT22;39692;53.114;7.060;2022-09-09T13:59:48;21.40;93.40
53782;DHT22;39692;53.114;7.060;2022-09-09T14:02:15;21.30;95.10
53782;DHT22;39692;53.114;7.060;2022-09-09T14:04:42;21.10;95.50
53782;DHT22;39692;53.114;7.060;2022-09-09T14:07:15;21.00;96.50
53782;DHT22;39692;53.114;7.060;2022-09-09T14:09:42;20.90;98.20
53782;DHT22;39692;53.114;7.060;2022-09-09T14:12:11;20.80;99.60
53782;DHT22;39692;53.114;7.060;2022-09-09T14:14:37;20.70;99.90
53782;DHT22;39692;53.114;7.060;2022-09-09T14:17:03;20.70;99.90
53782;DHT22;39692;53.114;7.060;2022-09-09T14:19:29;20.50;99.90
53782;DHT22;39692;53.114;7.060;2022-09-09T14:21:57;20.40;99.90
53782;DHT22;39692;53.114;7.060;2022-09-09T14:24:22;20.30;99.90
53782;DHT22;39692;53.114;7.060;2022-09-09T14:26:48;20.10;99.90
53782;DHT22;39692;53.114;7.060;2022-09-09T14:29:14;20.10;99.90
53782;DHT22;39692;53.114;7.060;2022-09-09T14:31:40;20.00;99.90
53782;DHT22;39692;53.114;7.060;2022-09-09T14:34:05;20.00;99.90
53782;DHT22;39692;53.114;7.060;2022-09-09T14:36:31;20.00;99.90
53782;DHT22;39692;53.114;7.060;2022-09-09T14:38:57;20.10;99.90
53782;DHT22;39692;53.114;7.060;2022-09-09T14:41:24;20.20;99.90
53782;DHT22;39692;53.114;7.060;2022-09-09T14:43:50;20.30;99.90
53782;DHT22;39692;53.114;7.060;2022-09-09T14:46:19;20.40;99.90
53782;DHT22;39692;53.114;7.060;2022-09-09T14:48:45;20.50;99.90
53782;DHT22;39692;53.114;7.060;2022-09-09T14:51:17;20.60;99.90
53782;DHT22;39692;53.114;7.060;2022-09-09T14:53:45;20.80;99.90
53782;DHT22;39692;53.114;7.060;2022-09-09T14:56:14;20.90;99.90
53782;DHT22;39692;53.114;7.060;2022-09-09T14:58:40;20.90;99.90
53782;DHT22;39692;53.114;7.060;2022-09-09T15:01:13;21.00;99.90
53782;DHT22;39692;53.114;7.060;2022-09-09T15:03:41;21.20;99.90
53782;DHT22;39692;53.114;7.060;2022-09-09T15:06:11;21.20;99.90
53782;DHT22;39692;53.114;7.060;2022-09-09T15:08:39;21.10;99.90
53782;DHT22;39692;53.114;7.060;2022-09-09T15:11:06;21.00;99.90
53782;DHT22;39692;53.114;7.060;2022-09-09T15:13:35;20.90;99.90
53782;DHT22;39692;53.114;7.060;2022-09-09T15:18:34;20.30;99.90
53782;DHT22;39692;53.114;7.060;2022-09-09T15:21:02;19.80;99.90
53782;DHT22;39692;53.114;7.060;2022-09-09T15:23:28;19.50;99.90
53782;DHT22;39692;53.114;7.060;2022-09-09T15:25:56;19.40;99.90
53782;DHT22;39692;53.114;7.060;2022-09-09T15:28:22;19.30;99.90
53782;DHT22;39692;53.114;7.060;2022-09-09T15:30:52;19.40;99.90
53782;DHT22;39692;53.114;7.060;2022-09-09T15:33:19;19.30;99.90
53782;DHT22;39692;53.114;7.060;2022-09-09T15:35:45;19.30;99.90
53782;DHT22;39692;53.114;7.060;2022-09-09T15:38:12;19.20;99.90
53782;DHT22;39692;53.114;7.060;2022-09-09T15:40:42;19.10;99.90
53782;DHT22;39692;53.114;7.060;2022-09-09T15:43:08;19.10;99.90
53782;DHT22;39692;53.114;7.060;2022-09-09T15:45:36;19.10;99.90
53782;DHT22;39692;53.114;7.060;2022-09-09T15:48:03;19.10;99.90
53782;DHT22;39692;53.114;7.060;2022-09-09T15:50:29;19.10;99.90
53782;DHT22;39692;53.114;7.060;2022-09-09T15:52:57;19.00;99.90
53782;DHT22;39692;53.114;7.060;2022-09-09T15:55:22;19.00;99.90
53782;DHT22;39692;53.114;7.060;2022-09-09T15:57:49;19.00;99.90
53782;DHT22;39692;53.114;7.060;2022-09-09T16:00:17;19.10;99.90
53782;DHT22;39692;53.114;7.060;2022-09-09T16:02:43;19.20;99.90
53782;DHT22;39692;53.114;7.060;2022-09-09T16:05:09;19.30;99.90
53782;DHT22;39692;53.114;7.060;2022-09-09T16:07:35;19.40;99.90
53782;DHT22;39692;53.114;7.060;2022-09-09T16:10:02;19.50;99.90
53782;DHT22;39692;53.114;7.060;2022-09-09T16:12:27;19.50;99.90
53782;DHT22;39692;53.114;7.060;2022-09-09T16:14:53;19.60;99.90
53782;DHT22;39692;53.114;7.060;2022-09-09T16:17:19;19.70;99.90
53782;DHT22;39692;53.114;7.060;2022-09-09T16:19:46;19.80;99.90
53782;DHT22;39692;53.114;7.060;2022-09-09T16:22:11;19.80;99.90
53782;DHT22;39692;53.114;7.060;2022-09-09T16:24:37;19.70;99.90
53782;DHT22;39692;53.114;7.060;2022-09-09T16:27:04;19.70;99.90
53782;DHT22;39692;53.114;7.060;2022-09-09T16:29:29;19.80;99.90
53782;DHT22;39692;53.114;7.060;2022-09-09T16:31:55;19.80;99.90
53782;DHT22;39692;53.114;7.060;2022-09-09T16:34:21;19.70;99.90
53782;DHT22;39692;53.114;7.060;2022-09-09T16:36:48;19.70;99.90
53782;DHT22;39692;53.114;7.060;2022-09-09T16:39:16;19.60;99.90
53782;DHT22;39692;53.114;7.060;2022-09-09T16:41:43;19.60;99.90
53782;DHT22;39692;53.114;7.060;2022-09-09T16:44:11;19.50;99.90
53782;DHT22;39692;53.114;7.060;2022-09-09T16:46:39;19.60;99.90
53782;DHT22;39692;53.114;7.060;2022-09-09T16:49:08;19.50;99.90
53782;DHT22;39692;53.114;7.060;2022-09-09T16:51:37;19.50;99.90
53782;DHT22;39692;53.114;7.060;2022-09-09T16:54:06;19.50;99.90
53782;DHT22;39692;53.114;7.060;2022-09-09T16:56:34;19.40;99.90
53782;DHT22;39692;53.114;7.060;2022-09-09T16:59:05;19.40;99.90
53782;DHT22;39692;53.114;7.060;2022-09-09T17:01:33;19.30;99.90
53782;DHT22;39692;53.114;7.060;2022-09-09T17:04:03;19.20;99.90
53782;DHT22;39692;53.114;7.060;2022-09-09T17:06:32;19.10;99.90
53782;DHT22;39692;53.114;7.060;2022-09-09T17:09:04;19.10;99.90
53782;DHT22;39692;53.114;7.060;2022-09-09T17:11:30;19.10;99.90
53782;DHT22;39692;53.114;7.060;2022-09-09T17:13:57;19.00;99.90
53782;DHT22;39692;53.114;7.060;2022-09-09T17:16:25;18.90;99.90
53782;DHT22;39692;53.114;7.060;2022-09-09T17:18:53;18.90;99.90
53782;DHT22;39692;53.114;7.060;2022-09-09T17:21:23;18.80;99.90
53782;DHT22;39692;53.114;7.060;2022-09-09T17:23:51;18.80;99.90
53782;DHT22;39692;53.114;7.060;2022-09-09T17:26:20;18.80;99.90
53782;DHT22;39692;53.114;7.060;2022-09-09T17:28:46;18.80;99.90
53782;DHT22;39692;53.114;7.060;2022-09-09T17:31:14;18.80;99.90
53782;DHT22;39692;53.114;7.060;2022-09-09T17:33:43;18.70;99.90
53782;DHT22;39692;53.114;7.060;2022-09-09T17:36:17;18.70;99.90
53782;DHT22;39692;53.114;7.060;2022-09-09T17:38:44;18.60;99.90
53782;DHT22;39692;53.114;7.060;2022-09-09T17:41:16;18.60;99.90
53782;DHT22;39692;53.114;7.060;2022-09-09T17:43:43;18.50;99.90
53782;DHT22;39692;53.114;7.060;2022-09-09T17:46:11;18.60;99.90
53782;DHT22;39692;53.114;7.060;2022-09-09T17:48:38;18.50;99.90
53782;DHT22;39692;53.114;7.060;2022-09-09T17:51:06;18.50;99.90
53782;DHT22;39692;53.114;7.060;2022-09-09T17:53:40;18.50;99.90
53782;DHT22;39692;53.114;7.060;2022-09-09T17:56:09;18.50;99.90
53782;DHT22;39692;53.114;7.060;2022-09-09T17:58:36;18.50;99.90
53782;DHT22;39692;53.114;7.060;2022-09-09T18:01:04;18.50;99.90
53782;DHT22;39692;53.114;7.060;2022-09-09T18:03:34;18.50;99.90
53782;DHT22;39692;53.114;7.060;2022-09-09T18:06:02;18.50;99.90
53782;DHT22;39692;53.114;7.060;2022-09-09T18:08:29;18.40;99.90
53782;DHT22;39692;53.114;7.060;2022-09-09T18:10:55;18.40;99.90
53782;DHT22;39692;53.114;7.060;2022-09-09T18:13:21;18.40;99.90
53782;DHT22;39692;53.114;7.060;2022-09-09T18:15:47;18.30;99.90
53782;DHT22;39692;53.114;7.060;2022-09-09T18:18:13;18.30;99.90
53782;DHT22;39692;53.114;7.060;2022-09-09T18:20:39;18.30;99.90
53782;DHT22;39692;53.114;7.060;2022-09-09T18:23:05;18.30;99.90
53782;DHT22;39692;53.114;7.060;2022-09-09T18:25:37;18.20;99.90
53782;DHT22;39692;53.114;7.060;2022-09-09T18:28:03;18.20;99.90
53782;DHT22;39692;53.114;7.060;2022-09-09T18:30:28;18.20;99.90
53782;DHT22;39692;53.114;7.060;2022-09-09T18:32:55;18.20;99.90
53782;DHT22;39692;53.114;7.060;2022-09-09T18:35:21;18.20;99.90
53782;DHT22;39692;53.114;7.060;2022-09-09T18:37:47;18.20;99.90
53782;DHT22;39692;53.114;7.060;2022-09-09T18:40:12;18.20;99.90
53782;DHT22;39692;53.114;7.060;2022-09-09T18:42:38;18.10;99.90
53782;DHT22;39692;53.114;7.060;2022-09-09T18:45:04;18.10;99.90
53782;DHT22;39692;53.114;7.060;2022-09-09T18:47:30;18.10;99.90
53782;DHT22;39692;53.114;7.060;2022-09-09T18:49:55;18.10;99.90
53782;DHT22;39692;53.114;7.060;2022-09-09T18:52:21;18.10;99.90
53782;DHT22;39692;53.114;7.060;2022-09-09T18:54:47;18.00;99.90
53782;DHT22;39692;53.114;7.060;2022-09-09T18:57:13;18.00;99.90
53782;DHT22;39692;53.114;7.060;2022-09-09T18:59:38;18.00;99.90
53782;DHT22;39692;53.114;7.060;2022-09-09T19:02:04;18.00;99.90
53782;DHT22;39692;53.114;7.060;2022-09-09T19:04:30;18.00;99.90
53782;DHT22;39692;53.114;7.060;2022-09-09T19:06:57;18.00;99.90
53782;DHT22;39692;53.114;7.060;2022-09-09T19:09:28;17.90;99.90
53782;DHT22;39692;53.114;7.060;2022-09-09T19:11:56;17.90;99.90
53782;DHT22;39692;53.114;7.060;2022-09-09T19:14:21;17.80;99.90
53782;DHT22;39692;53.114;7.060;2022-09-09T19:16:47;17.90;99.90
53782;DHT22;39692;53.114;7.060;2022-09-09T19:19:22;17.80;99.90
53782;DHT22;39692;53.114;7.060;2022-09-09T19:21:48;17.80;99.90
53782;DHT22;39692;53.114;7.060;2022-09-09T19:24:24;17.80;99.90
53782;DHT22;39692;53.114;7.060;2022-09-09T19:26:53;17.80;99.90
53782;DHT22;39692;53.114;7.060;2022-09-09T19:29:22;17.70;99.90
53782;DHT22;39692;53.114;7.060;2022-09-09T19:31:48;17.70;99.90
53782;DHT22;39692;53.114;7.060;2022-09-09T19:34:14;17.70;99.90
53782;DHT22;39692;53.114;7.060;2022-09-09T19:36:41;17.70;99.90
53782;DHT22;39692;53.114;7.060;2022-09-09T19:39:08;17.70;99.90
53782;DHT22;39692;53.114;7.060;2022-09-09T19:41:35;17.70;99.90
53782;DHT22;39692;53.114;7.060;2022-09-09T19:44:06;17.60;99.90
53782;DHT22;39692;53.114;7.060;2022-09-09T19:46:34;17.60;99.90
53782;DHT22;39692;53.114;7.060;2022-09-09T19:49:00;17.60;99.90
53782;DHT22;39692;53.114;7.060;2022-09-09T19:51:27;17.60;99.90
53782;DHT22;39692;53.114;7.060;2022-09-09T19:54:00;17.60;99.90